Butler, South Dakota
Current Conditions -  °F | °C
As of 12:53 AM on Tuesday 21 Oct 2014 (Local Time) from KABR Reporting Station
Clear Clear  
Wind Chill:   Ceiling: Unl
Heat Index:   Visibility: 10mi
Dew Point:   Wind: 8mph
Humidity: 76%   Direction: 110°ESE
Pressure: 30"   Gusts: NA
Location:  45.2657°N, 97.7493°W
Report Text: KABR 210553Z AUTO 11007KT 10SM CLR 07/03 A3000 RMK AO2 SLP162 T00670028 10128 20061 402281017 58004
Loading
Personal Weather Stations






























Interactive Weather Map
Tropical Storm Tracking
New forecast layout! Learn more

10-Day Weather Forecast

Advertisements
Track Severe Weather on mobile